Time;durP1;ratioP1;P1;durP2;ratioP2;P2;SDS_P1;SDS_P2;PMS_P1;PMS_P2;Temp;Humidity;BMP_temperature;BMP_pressure;BME280_temperature;BME280_humidity;BME280_pressure;Samples;Min_cycle;Max_cycle;Signal;HPM_P1;HPM_P2
2022/03/29 00:02:19;;;;;;;;;;;;;;;22.50;21.69;98086.59;5036104;28;1182;-76
2022/03/29 00:04:45;;;;;;;;;;;;;;;22.39;21.44;98083.28;5035739;28;934;-77
2022/03/29 00:07:10;;;;;;;;;;;;;;;21.75;22.33;98077.28;5035585;28;1106;-78
2022/03/29 00:09:36;;;;;;;;;;;;;;;21.68;22.45;98083.13;5034665;28;1212;-78
2022/03/29 00:12:01;;;;;;;;;;;;;;;21.65;22.70;98083.22;5036199;28;1977;-77
2022/03/29 00:14:27;;;;;;;;;;;;;;;22.40;21.58;98082.03;5000882;28;1040;-78
2022/03/29 00:23:22;;;;;;;;;;;;;;;21.65;22.50;98052.88;5039666;28;999;-78
2022/03/29 00:25:47;;;;;;;;;;;;;;;21.56;22.74;98049.88;5039438;28;1041;-77
2022/03/29 00:28:14;;;;;;;;;;;;;;;21.97;22.04;98048.41;5021118;28;976;-78
2022/03/29 00:30:39;;;;;;;;;;;;;;;22.40;21.74;98041.56;5039393;28;989;-77
2022/03/29 00:33:05;;;;;;;;;;;;;;;22.43;21.62;98043.47;5039518;28;1977;-77
2022/03/29 00:35:30;;;;;;;;;;;;;;;21.92;21.96;98037.63;5039439;28;1007;-77
2022/03/29 00:37:56;;;;;;;;;;;;;;;21.83;22.34;98039.03;5039545;28;916;-78
2022/03/29 00:40:21;;;;;;;;;;;;;;;21.69;22.43;98033.75;5039397;28;983;-77
2022/03/29 00:42:47;;;;;;;;;;;;;;;22.40;21.63;98035.88;5004064;28;1036;-76
2022/03/29 00:45:12;;;;;;;;;;;;;;;22.62;21.54;98036.84;5039292;28;942;-78
2022/03/29 00:47:38;;;;;;;;;;;;;;;22.18;21.56;98022.34;5039288;28;968;-77
2022/03/29 00:50:04;;;;;;;;;;;;;;;21.72;22.61;98021.53;5038968;28;1145;-78
2022/03/29 00:52:30;;;;;;;;;;;;;;;21.58;22.77;98013.44;5038990;28;1906;-77
2022/03/29 00:54:56;;;;;;;;;;;;;;;21.91;22.30;98014.13;5038800;28;906;-77
2022/03/29 00:57:21;;;;;;;;;;;;;;;22.28;22.03;98018.41;4996903;28;1080;-78
2022/03/29 00:59:47;;;;;;;;;;;;;;;22.55;21.53;98014.38;4997298;28;986;-77
2022/03/29 01:02:12;;;;;;;;;;;;;;;21.96;22.13;98007.13;4996845;28;977;-78
2022/03/29 01:04:38;;;;;;;;;;;;;;;21.69;22.72;97996.16;4964980;28;955;-77
2022/03/29 01:07:03;;;;;;;;;;;;;;;21.63;22.77;97987.41;4997316;28;1020;-77
2022/03/29 01:09:29;;;;;;;;;;;;;;;21.65;22.74;97981.28;4977437;28;1013;-77
2022/03/29 01:11:57;;;;;;;;;;;;;;;22.17;22.22;97989.53;4977515;28;1911;-77
2022/03/29 01:14:23;;;;;;;;;;;;;;;22.45;21.84;97975.78;4977482;28;996;-78
2022/03/29 01:19:33;;;;;;;;;;;;;;;21.72;22.50;97987.56;4964012;28;1003;-78
2022/03/29 01:22:02;;;;;;;;;;;;;;;21.63;22.81;97972.44;4961256;28;1122;-78
2022/03/29 01:24:27;;;;;;;;;;;;;;;21.87;22.29;97964.50;4977138;28;999;-78
2022/03/29 01:26:53;;;;;;;;;;;;;;;22.49;21.88;97976.47;4977266;28;988;-78
2022/03/29 01:29:20;;;;;;;;;;;;;;;22.67;21.29;97965.38;4976505;28;973;-77
2022/03/29 01:31:45;;;;;;;;;;;;;;;21.96;22.36;97956.13;4956081;29;1906;-78
2022/03/29 01:34:10;;;;;;;;;;;;;;;21.81;22.41;97956.56;4938798;29;1129;-78
2022/03/29 01:36:36;;;;;;;;;;;;;;;21.62;22.81;97949.00;4939004;29;970;-77
2022/03/29 01:39:03;;;;;;;;;;;;;;;21.94;22.49;97941.63;4938494;29;990;-78
2022/03/29 01:41:29;;;;;;;;;;;;;;;22.44;21.70;97943.03;4938587;29;987;-78
2022/03/29 01:43:54;;;;;;;;;;;;;;;22.23;21.75;97933.13;4938705;29;935;-77
2022/03/29 01:46:19;;;;;;;;;;;;;;;21.71;22.39;97940.66;4943336;28;1045;-77
2022/03/29 01:48:45;;;;;;;;;;;;;;;21.50;22.99;97942.06;4957714;28;949;-78
2022/03/29 01:51:12;;;;;;;;;;;;;;;21.78;22.43;97936.84;4957212;28;1976;-78
2022/03/29 01:53:37;;;;;;;;;;;;;;;22.31;22.06;97935.28;4941313;29;1117;-78
2022/03/29 01:56:03;;;;;;;;;;;;;;;22.53;21.44;97926.09;4941321;29;1358;-78
2022/03/29 01:58:31;;;;;;;;;;;;;;;22.01;22.16;97918.75;4957134;28;1114;-77
2022/03/29 02:00:57;;;;;;;;;;;;;;;21.88;22.47;97932.09;4957554;28;947;-78
2022/03/29 02:03:22;;;;;;;;;;;;;;;21.72;22.78;97913.94;4986980;28;916;-77
2022/03/29 02:05:48;;;;;;;;;;;;;;;21.88;22.21;97921.56;5011153;28;1021;-77
2022/03/29 02:08:14;;;;;;;;;;;;;;;22.47;21.90;97913.75;5015110;28;1032;-77
2022/03/29 02:10:40;;;;;;;;;;;;;;;22.49;21.75;97919.78;5015738;28;1174;-78
2022/03/29 02:13:09;;;;;;;;;;;;;;;21.95;22.29;97920.56;5015063;28;1913;-78
2022/03/29 02:15:35;;;;;;;;;;;;;;;21.71;22.75;97918.00;5015342;28;957;-76
2022/03/29 02:18:00;;;;;;;;;;;;;;;21.57;22.81;97912.75;5015118;28;935;-77
2022/03/29 02:20:26;;;;;;;;;;;;;;;22.22;22.21;97918.13;4979215;28;1294;-77
2022/03/29 02:22:51;;;;;;;;;;;;;;;22.67;21.27;97914.31;4995100;28;1214;-78
2022/03/29 02:25:17;;;;;;;;;;;;;;;22.26;21.95;97901.81;4995277;28;1296;-77
2022/03/29 02:27:43;;;;;;;;;;;;;;;21.96;22.32;97910.81;5012344;28;1464;-78
2022/03/29 02:30:10;;;;;;;;;;;;;;;21.71;22.48;97906.69;4971447;28;1133;-78
2022/03/29 02:32:35;;;;;;;;;;;;;;;21.71;22.56;97895.34;5026051;28;1967;-78
2022/03/29 02:35:00;;;;;;;;;;;;;;;22.26;22.03;97907.50;5025050;28;1327;-78
2022/03/29 02:37:26;;;;;;;;;;;;;;;22.65;21.52;97896.97;5025129;28;1241;-78
2022/03/29 02:39:51;;;;;;;;;;;;;;;22.11;21.87;97895.00;5027174;28;1159;-78
2022/03/29 02:42:17;;;;;;;;;;;;;;;21.88;22.44;97901.75;4983340;28;1289;-77
2022/03/29 02:44:42;;;;;;;;;;;;;;;21.63;22.90;97902.44;4986803;28;1356;-78
2022/03/29 02:47:08;;;;;;;;;;;;;;;21.80;22.66;97892.63;4979050;28;1014;-78
2022/03/29 02:49:33;;;;;;;;;;;;;;;22.51;21.82;97894.59;4995106;28;1186;-78
2022/03/29 02:51:58;;;;;;;;;;;;;;;22.66;21.20;97887.22;4962446;28;1968;-77
2022/03/29 02:54:24;;;;;;;;;;;;;;;21.91;22.51;97886.66;4995116;28;965;-76
2022/03/29 02:56:50;;;;;;;;;;;;;;;21.69;22.76;97889.34;4986250;28;1084;-77
2022/03/29 02:59:15;;;;;;;;;;;;;;;21.72;22.68;97888.44;4936043;28;1310;-78
2022/03/29 03:01:41;;;;;;;;;;;;;;;22.16;22.17;97891.63;4985967;28;1329;-78
2022/03/29 03:04:07;;;;;;;;;;;;;;;22.48;21.54;97884.94;4984553;28;1253;-78
2022/03/29 03:06:33;;;;;;;;;;;;;;;22.26;21.68;97881.97;4984453;28;1325;-78
2022/03/29 03:08:58;;;;;;;;;;;;;;;21.81;22.52;97877.25;4985778;28;1372;-77
2022/03/29 03:11:24;;;;;;;;;;;;;;;21.75;22.56;97884.69;4935560;28;1981;-78
2022/03/29 03:13:50;;;;;;;;;;;;;;;21.79;22.71;97885.41;4979438;28;1273;-78
2022/03/29 03:16:16;;;;;;;;;;;;;;;22.25;22.01;97882.44;4975653;28;960;-78
2022/03/29 03:18:41;;;;;;;;;;;;;;;22.63;21.83;97879.59;4976701;28;999;-77
2022/03/29 03:21:06;;;;;;;;;;;;;;;22.24;21.82;97881.66;4997472;28;1018;-77
2022/03/29 03:23:32;;;;;;;;;;;;;;;21.84;22.63;97875.56;4997119;28;1071;-78
2022/03/29 03:25:57;;;;;;;;;;;;;;;21.70;22.48;97876.75;4997232;28;874;-77
2022/03/29 03:28:23;;;;;;;;;;;;;;;21.56;22.90;97871.53;5003142;28;1533;-78
2022/03/29 03:30:48;;;;;;;;;;;;;;;22.29;22.13;97878.25;5025432;28;1222;-77
2022/03/29 03:33:14;;;;;;;;;;;;;;;22.66;21.69;97877.91;5025466;28;1910;-77
2022/03/29 03:35:39;;;;;;;;;;;;;;;22.11;22.18;97872.34;5026764;28;1170;-77
2022/03/29 03:38:08;;;;;;;;;;;;;;;21.88;22.38;97872.63;5023989;28;1126;-77
2022/03/29 03:40:34;;;;;;;;;;;;;;;21.73;22.61;97872.25;5021686;28;1387;-76
2022/03/29 03:43:00;;;;;;;;;;;;;;;21.54;22.74;97868.31;5026383;28;1350;-77
2022/03/29 03:45:26;;;;;;;;;;;;;;;22.31;21.95;97864.41;5026358;28;1241;-77
2022/03/29 03:47:51;;;;;;;;;;;;;;;22.61;21.68;97865.09;5024700;28;1316;-76
2022/03/29 03:50:17;;;;;;;;;;;;;;;22.07;22.09;97865.94;4989846;28;1281;-76
2022/03/29 03:52:42;;;;;;;;;;;;;;;21.79;22.66;97861.94;5028309;28;1990;-76
2022/03/29 03:55:08;;;;;;;;;;;;;;;21.56;23.01;97857.38;5000785;28;935;-76
2022/03/29 03:57:34;;;;;;;;;;;;;;;22.06;22.55;97859.50;5000760;28;1023;-76
2022/03/29 04:00:00;;;;;;;;;;;;;;;22.51;21.64;97858.50;5000748;28;904;-76
2022/03/29 04:02:26;;;;;;;;;;;;;;;22.84;21.32;97856.19;5000655;28;1072;-77
2022/03/29 04:04:51;;;;;;;;;;;;;;;22.91;21.33;97854.41;5000504;28;932;-77
2022/03/29 04:07:17;;;;;;;;;;;;;;;21.84;22.48;97861.38;4980643;28;1116;-77
2022/03/29 04:09:42;;;;;;;;;;;;;;;21.75;22.81;97856.38;5019886;28;901;-76
2022/03/29 04:12:08;;;;;;;;;;;;;;;21.66;22.79;97853.44;5002595;28;1992;-76
2022/03/29 04:14:33;;;;;;;;;;;;;;;21.66;22.79;97859.09;5020322;28;917;-77
2022/03/29 04:16:59;;;;;;;;;;;;;;;21.60;22.88;97860.88;4969061;28;956;-77
2022/03/29 04:19:24;;;;;;;;;;;;;;;21.58;22.75;97869.81;5020204;28;895;-76
2022/03/29 04:21:50;;;;;;;;;;;;;;;21.55;23.01;97864.25;5020209;28;969;-77
2022/03/29 04:24:15;;;;;;;;;;;;;;;21.54;23.15;97869.13;5002487;28;984;-77
2022/03/29 04:26:41;;;;;;;;;;;;;;;21.99;22.44;97837.06;5020262;28;1044;-76
2022/03/29 04:29:06;;;;;;;;;;;;;;;22.56;21.99;97862.81;5019468;28;930;-77
2022/03/29 04:31:32;;;;;;;;;;;;;;;22.16;22.26;97868.94;4958936;29;1974;-77
2022/03/29 04:34:01;;;;;;;;;;;;;;;21.84;22.48;97862.19;4939324;29;970;-76
2022/03/29 04:36:27;;;;;;;;;;;;;;;21.57;22.97;97867.44;4883231;29;1215;-77
2022/03/29 04:38:52;;;;;;;;;;;;;;;21.67;22.94;97857.84;4882916;29;1087;-77
2022/03/29 04:41:18;;;;;;;;;;;;;;;22.23;21.95;97868.75;4864015;29;1192;-75
2022/03/29 04:43:43;;;;;;;;;;;;;;;22.58;21.45;97857.47;4864255;29;964;-77
2022/03/29 04:46:09;;;;;;;;;;;;;;;22.04;22.09;97855.53;4848621;29;1369;-76
2022/03/29 04:48:34;;;;;;;;;;;;;;;21.71;22.75;97855.72;4864119;29;1190;-77
2022/03/29 04:51:00;;;;;;;;;;;;;;;21.66;22.77;97852.59;4863788;29;1304;-77
2022/03/29 04:53:25;;;;;;;;;;;;;;;21.71;22.83;97850.06;4863712;29;1919;-76
2022/03/29 04:55:51;;;;;;;;;;;;;;;21.65;22.93;97846.16;4863988;29;1332;-77
2022/03/29 04:58:17;;;;;;;;;;;;;;;21.60;22.87;97849.53;4863297;29;1320;-77
2022/03/29 05:00:43;;;;;;;;;;;;;;;21.56;22.90;97843.22;4863645;29;1320;-76
2022/03/29 05:03:08;;;;;;;;;;;;;;;22.30;22.13;97845.81;4899519;29;1388;-74
2022/03/29 05:05:33;;;;;;;;;;;;;;;22.47;21.63;97825.84;4909173;29;1351;-76
2022/03/29 05:07:59;;;;;;;;;;;;;;;22.12;22.29;97834.25;4952955;28;1318;-77
2022/03/29 05:10:24;;;;;;;;;;;;;;;21.84;22.44;97824.56;4966457;28;1246;-77
2022/03/29 05:12:51;;;;;;;;;;;;;;;21.58;23.12;97823.72;4941630;29;1906;-76
2022/03/29 05:15:17;;;;;;;;;;;;;;;21.45;23.32;97825.72;4958267;29;1055;-76
2022/03/29 05:17:43;;;;;;;;;;;;;;;22.50;21.76;97819.28;4963733;28;1061;-77
2022/03/29 05:20:08;;;;;;;;;;;;;;;22.59;21.77;97822.22;5034972;28;1193;-77
2022/03/29 05:22:41;;;;;;;;;;;;;;;21.94;22.60;97822.66;5028959;28;1342;-76
2022/03/29 05:25:06;;;;;;;;;;;;;;;21.73;22.77;97824.91;5026481;28;1218;-76
2022/03/29 05:27:32;;;;;;;;;;;;;;;21.65;22.98;97826.34;4975811;28;1342;-77
2022/03/29 05:29:58;;;;;;;;;;;;;;;22.02;22.28;97821.19;4957288;28;1297;-76
2022/03/29 05:32:23;;;;;;;;;;;;;;;22.61;21.61;97822.56;4968027;28;1906;-76
2022/03/29 05:34:49;;;;;;;;;;;;;;;22.38;21.98;97829.38;4976184;28;1298;-78
2022/03/29 05:37:15;;;;;;;;;;;;;;;21.49;22.68;97750.78;4935274;29;1248;-77
2022/03/29 05:39:41;;;;;;;;;;;;;;;21.75;22.90;97816.72;4938679;29;1962;-77
2022/03/29 05:42:10;;;;;;;;;;;;;;;21.71;23.12;97813.22;4938724;29;1019;-77
2022/03/29 05:44:37;;;;;;;;;;;;;;;22.40;22.11;97811.94;4916931;29;1530;-77
2022/03/29 05:49:47;;;;;;;;;;;;;;;21.95;22.76;97815.75;4937948;29;1116;-70
2022/03/29 05:52:12;;;;;;;;;;;;;;;22.25;22.62;97815.22;4929395;29;1895;-71
2022/03/29 05:54:39;;;;;;;;;;;;;;;22.51;23.05;97809.53;4926970;29;1488;-72
2022/03/29 05:57:05;;;;;;;;;;;;;;;22.57;22.75;97807.69;4927147;29;1482;-71
2022/03/29 05:59:31;;;;;;;;;;;;;;;22.58;22.97;97803.59;4927263;29;1516;-69
2022/03/29 06:02:04;;;;;;;;;;;;;;;22.58;22.94;97814.94;4979656;28;1531;-70
2022/03/29 06:04:32;;;;;;;;;;;;;;;22.99;23.11;97811.13;4982454;28;1474;-70
2022/03/29 06:06:58;;;;;;;;;;;;;;;23.11;22.71;97806.69;4986559;28;1531;-69
2022/03/29 06:09:24;;;;;;;;;;;;;;;23.17;22.93;97809.72;4987208;28;1527;-69
2022/03/29 06:11:49;;;;;;;;;;;;;;;23.36;22.51;97812.25;4995506;28;1899;-69
2022/03/29 06:14:15;;;;;;;;;;;;;;;23.73;22.02;97801.16;5009143;28;1089;-69
2022/03/29 06:16:42;;;;;;;;;;;;;;;23.44;22.78;97803.47;5037088;28;968;-69
2022/03/29 06:19:08;;;;;;;;;;;;;;;23.54;22.78;97807.94;5036923;28;955;-69
2022/03/29 06:21:36;;;;;;;;;;;;;;;23.58;22.84;97800.09;5033729;28;1783;-70
2022/03/29 06:24:02;;;;;;;;;;;;;;;23.60;22.89;97797.56;4990720;28;1434;-69
2022/03/29 06:26:28;;;;;;;;;;;;;;;23.66;22.49;97801.41;4984625;28;1492;-69
2022/03/29 06:28:53;;;;;;;;;;;;;;;23.45;22.83;97796.50;4995090;28;1002;-69
2022/03/29 06:31:19;;;;;;;;;;;;;;;23.31;23.00;97798.66;4988482;28;1972;-69
2022/03/29 06:33:45;;;;;;;;;;;;;;;23.17;23.45;97804.84;4983581;28;1520;-69
2022/03/29 06:36:10;;;;;;;;;;;;;;;22.97;23.77;97796.63;4983000;28;1410;-68
2022/03/29 06:38:35;;;;;;;;;;;;;;;23.02;23.67;97793.19;4959162;28;1014;-68
2022/03/29 06:41:01;;;;;;;;;;;;;;;22.95;23.88;97804.00;4983405;28;1530;-69
2022/03/29 06:43:26;;;;;;;;;;;;;;;23.03;23.90;97799.66;4985856;28;1653;-69
2022/03/29 06:45:52;;;;;;;;;;;;;;;23.25;23.36;97811.81;4984185;28;1582;-69
2022/03/29 06:48:17;;;;;;;;;;;;;;;23.17;23.85;97812.56;4984866;28;1495;-69
2022/03/29 06:50:43;;;;;;;;;;;;;;;23.08;23.90;97807.59;4935931;29;1626;-68
2022/03/29 06:53:08;;;;;;;;;;;;;;;23.10;23.78;97810.75;4936656;29;1914;-68
2022/03/29 06:55:35;;;;;;;;;;;;;;;22.93;23.79;97803.66;4918399;29;1484;-69
2022/03/29 06:58:01;;;;;;;;;;;;;;;23.05;23.62;97808.50;4947625;29;1571;-69
2022/03/29 07:00:27;;;;;;;;;;;;;;;22.77;24.04;97805.38;4955469;29;1675;-70
2022/03/29 07:02:52;;;;;;;;;;;;;;;22.96;23.81;97814.13;4956016;29;1033;-69
2022/03/29 07:05:19;;;;;;;;;;;;;;;22.92;23.93;97807.75;4955669;29;1069;-73
2022/03/29 07:07:44;;;;;;;;;;;;;;;21.45;24.17;97576.63;4955526;29;947;-68
2022/03/29 07:12:55;;;;;;;;;;;;;;;22.91;24.41;97797.66;4955439;29;1911;-68
2022/03/29 07:15:21;;;;;;;;;;;;;;;22.91;24.17;97803.34;4955883;29;1020;-68
2022/03/29 07:17:46;;;;;;;;;;;;;;;23.15;24.16;97795.97;4955642;29;930;-68
2022/03/29 07:20:12;;;;;;;;;;;;;;;22.94;24.38;97791.06;4955440;29;1003;-71
2022/03/29 07:22:38;;;;;;;;;;;;;;;22.86;24.68;97788.47;5008880;28;1111;-70
2022/03/29 07:25:03;;;;;;;;;;;;;;;22.84;24.68;97793.00;5016192;28;1006;-70
2022/03/29 07:27:29;;;;;;;;;;;;;;;22.90;24.40;97774.19;4964852;28;1039;-70
2022/03/29 07:29:54;;;;;;;;;;;;;;;23.09;24.43;97784.41;5016352;28;958;-70
2022/03/29 07:32:21;;;;;;;;;;;;;;;23.12;24.45;97780.66;5016051;28;2032;-70
2022/03/29 07:34:46;;;;;;;;;;;;;;;22.97;24.60;97775.97;5016190;28;967;-70
2022/03/29 07:37:12;;;;;;;;;;;;;;;23.11;24.21;97775.47;5016318;28;916;-70
2022/03/29 07:39:38;;;;;;;;;;;;;;;23.01;24.37;97773.81;5016063;28;971;-69
2022/03/29 07:42:04;;;;;;;;;;;;;;;22.97;24.35;97773.13;5016128;28;920;-70
2022/03/29 07:44:29;;;;;;;;;;;;;;;22.99;24.52;97770.63;5016190;28;921;-69
2022/03/29 07:46:55;;;;;;;;;;;;;;;22.98;24.49;97775.50;4963677;28;1512;-68
2022/03/29 07:49:20;;;;;;;;;;;;;;;23.00;24.72;97763.69;5013585;28;1042;-70
2022/03/29 07:51:46;;;;;;;;;;;;;;;23.23;24.53;97763.25;5013605;28;1991;-70
2022/03/29 07:54:12;;;;;;;;;;;;;;;23.18;24.38;97752.47;5013605;28;1055;-69
2022/03/29 07:56:37;;;;;;;;;;;;;;;23.19;25.32;97744.75;5013763;28;938;-72
2022/03/29 07:59:02;;;;;;;;;;;;;;;22.97;25.34;97747.59;5013314;28;991;-71
2022/03/29 08:01:29;;;;;;;;;;;;;;;23.27;25.07;97740.41;5012640;28;1681;-70
2022/03/29 08:03:55;;;;;;;;;;;;;;;23.35;25.33;97736.81;5012716;28;1649;-74
2022/03/29 08:06:20;;;;;;;;;;;;;;;23.61;25.17;97753.69;5012448;28;1525;-74
2022/03/29 08:08:46;;;;;;;;;;;;;;;23.40;24.92;97739.06;5013322;28;1008;-77
2022/03/29 08:11:11;;;;;;;;;;;;;;;23.51;24.99;97732.97;5013108;28;1089;-71
2022/03/29 08:13:37;;;;;;;;;;;;;;;23.63;25.25;97742.72;5013242;28;1910;-73
2022/03/29 08:16:03;;;;;;;;;;;;;;;23.81;24.99;97737.09;5013739;28;1084;-73
2022/03/29 08:18:29;;;;;;;;;;;;;;;23.75;24.79;97741.81;5029339;28;875;-73
2022/03/29 08:20:54;;;;;;;;;;;;;;;23.69;25.14;97735.16;5035298;28;1005;-73
2022/03/29 08:23:20;;;;;;;;;;;;;;;23.30;25.48;97731.75;5000315;28;1031;-72
2022/03/29 08:25:46;;;;;;;;;;;;;;;23.64;25.25;97727.25;5035829;28;947;-71
2022/03/29 08:28:12;;;;;;;;;;;;;;;23.66;25.02;97733.25;5035249;28;959;-72
2022/03/29 08:30:38;;;;;;;;;;;;;;;23.69;25.21;97725.84;5035249;28;927;-74
2022/03/29 08:33:03;;;;;;;;;;;;;;;24.04;24.45;97723.63;5035722;28;1902;-74
2022/03/29 08:35:29;;;;;;;;;;;;;;;24.21;24.03;97722.09;5035532;28;923;-74
2022/03/29 08:37:54;;;;;;;;;;;;;;;24.13;24.44;97710.22;5035889;28;913;-73
2022/03/29 08:40:26;;;;;;;;;;;;;;;23.95;24.82;97704.50;5038828;28;954;-74
2022/03/29 08:42:54;;;;;;;;;;;;;;;23.73;24.93;97710.25;5039046;28;1064;-73
2022/03/29 08:45:21;;;;;;;;;;;;;;;23.64;24.83;97702.47;5035478;28;1286;-74
2022/03/29 08:47:47;;;;;;;;;;;;;;;23.69;24.77;97701.06;5039219;28;954;-76
2022/03/29 08:50:13;;;;;;;;;;;;;;;23.84;24.51;97685.03;5003774;28;1074;-76
2022/03/29 08:52:39;;;;;;;;;;;;;;;23.86;24.42;97685.34;5039634;28;1902;-75
2022/03/29 08:55:09;;;;;;;;;;;;;;;23.98;24.22;97680.81;5019866;28;1568;-75
2022/03/29 08:57:34;;;;;;;;;;;;;;;23.96;24.43;97683.34;5017687;28;1446;-76
2022/03/29 09:00:00;;;;;;;;;;;;;;;23.98;24.14;97680.00;5019014;28;851;-78
2022/03/29 09:02:26;;;;;;;;;;;;;;;23.97;24.31;97681.28;5019378;28;986;-75
2022/03/29 09:05:12;;;;;;;;;;;;;;;23.73;24.47;97679.00;5001344;28;1351;-76
2022/03/29 09:07:47;;;;;;;;;;;;;;;23.88;24.50;97677.16;5018585;28;895;-76
2022/03/29 09:10:13;;;;;;;;;;;;;;;23.84;24.32;97673.69;4966648;28;2153;-76
2022/03/29 09:12:39;;;;;;;;;;;;;;;23.95;24.34;97670.41;5016554;28;1980;-76
2022/03/29 09:15:05;;;;;;;;;;;;;;;23.80;24.78;97663.72;4976712;28;1093;-74
2022/03/29 09:17:35;;;;;;;;;;;;;;;23.52;24.90;97676.97;4937891;29;1107;-76
2022/03/29 09:20:11;;;;;;;;;;;;;;;22.94;25.86;97663.38;4919167;29;1030;-74
2022/03/29 09:22:37;;;;;;;;;;;;;;;22.88;25.79;97672.50;4919225;29;943;-74
2022/03/29 09:25:02;;;;;;;;;;;;;;;23.19;25.52;97666.06;4919044;29;1048;-73
2022/03/29 09:27:28;;;;;;;;;;;;;;;22.85;26.00;97661.28;4918860;29;1097;-74
2022/03/29 09:30:06;;;;;;;;;;;;;;;22.93;25.98;97670.31;4919235;29;1023;-75
2022/03/29 09:32:32;;;;;;;;;;;;;;;22.86;25.72;97672.16;4918703;29;1894;-73
2022/03/29 09:35:04;;;;;;;;;;;;;;;22.78;26.22;97664.34;4881113;29;1827;-75
2022/03/29 09:37:33;;;;;;;;;;;;;;;22.72;26.30;97655.63;4881202;29;1162;-74
2022/03/29 09:39:58;;;;;;;;;;;;;;;22.70;26.15;97658.16;4880998;29;994;-74
2022/03/29 09:42:40;;;;;;;;;;;;;;;22.74;26.31;97663.69;4880942;29;1311;-75
2022/03/29 09:45:06;;;;;;;;;;;;;;;22.76;26.10;97650.63;4880280;29;1502;-73
2022/03/29 09:47:32;;;;;;;;;;;;;;;22.70;26.17;97652.50;4896921;29;1681;-74
2022/03/29 09:50:08;;;;;;;;;;;;;;;23.14;25.83;97643.97;4910780;29;1509;-74
2022/03/29 09:52:37;;;;;;;;;;;;;;;23.31;25.08;97651.03;4925983;29;2008;-77
2022/03/29 09:55:13;;;;;;;;;;;;;;;23.40;25.28;97645.38;4899253;29;1498;-74
2022/03/29 09:57:44;;;;;;;;;;;;;;;23.64;24.86;97647.72;4897180;29;1467;-74
2022/03/29 10:00:19;;;;;;;;;;;;;;;23.56;24.86;97637.88;4893260;29;1589;-74
2022/03/29 10:02:45;;;;;;;;;;;;;;;23.57;24.67;97639.44;4905886;29;1615;-72
2022/03/29 10:05:10;;;;;;;;;;;;;;;22.98;25.86;97641.34;4943726;28;1131;-74
2022/03/29 10:07:43;;;;;;;;;;;;;;;22.92;25.61;97634.69;4982144;28;1640;-73
2022/03/29 10:10:09;;;;;;;;;;;;;;;22.79;26.12;97634.72;4995355;28;1242;-73
2022/03/29 10:12:35;;;;;;;;;;;;;;;22.64;25.97;97637.31;4986603;28;1906;-73
2022/03/29 10:15:00;;;;;;;;;;;;;;;22.63;25.92;97624.38;4964173;28;1980;-75
2022/03/29 10:17:26;;;;;;;;;;;;;;;22.64;26.03;97631.66;4965736;28;1527;-72
2022/03/29 10:19:52;;;;;;;;;;;;;;;22.52;26.20;97627.59;4964738;28;1464;-73
2022/03/29 10:22:17;;;;;;;;;;;;;;;23.13;25.14;97623.31;4948004;29;1496;-78
2022/03/29 10:24:43;;;;;;;;;;;;;;;23.38;24.91;97621.56;4956477;29;994;-78
2022/03/29 10:27:08;;;;;;;;;;;;;;;23.23;24.83;97618.47;4974142;28;1614;-78
2022/03/29 10:29:35;;;;;;;;;;;;;;;23.17;24.92;97611.84;4975136;28;1503;-78
2022/03/29 10:32:06;;;;;;;;;;;;;;;23.18;24.94;97613.41;4965416;28;1907;-78
2022/03/29 10:34:42;;;;;;;;;;;;;;;22.93;25.47;97607.91;4975267;28;954;-77
2022/03/29 10:37:10;;;;;;;;;;;;;;;22.84;25.42;97600.88;4956370;29;928;-78
2022/03/29 10:39:46;;;;;;;;;;;;;;;23.03;25.16;97604.66;4955949;29;989;-78
2022/03/29 10:42:32;;;;;;;;;;;;;;;22.90;25.28;97606.81;4956442;29;959;-79
2022/03/29 10:45:01;;;;;;;;;;;;;;;22.27;25.79;97534.97;4917064;29;990;-78
2022/03/29 10:47:27;;;;;;;;;;;;;;;22.42;26.07;97591.13;4884123;29;1022;-78
2022/03/29 10:49:52;;;;;;;;;;;;;;;22.55;25.82;97583.38;4898871;29;1222;-79
2022/03/29 10:52:21;;;;;;;;;;;;;;;22.34;26.03;97580.06;4899080;29;1883;-77
2022/03/29 10:54:46;;;;;;;;;;;;;;;22.29;25.88;97583.50;4898735;29;977;-78
2022/03/29 10:57:24;;;;;;;;;;;;;;;22.62;25.75;97583.88;4898964;29;1175;-78
2022/03/29 10:59:50;;;;;;;;;;;;;;;22.52;25.90;97579.41;4908949;29;986;-77
2022/03/29 11:02:19;;;;;;;;;;;;;;;22.84;25.18;97572.50;4916834;29;1063;-78
2022/03/29 11:05:06;;;;;;;;;;;;;;;22.97;24.99;97563.16;4917724;29;976;-76
2022/03/29 11:07:32;;;;;;;;;;;;;;;22.56;25.42;97567.94;4928833;28;1013;-77
2022/03/29 11:10:09;;;;;;;;;;;;;;;22.68;25.46;97569.91;4955675;28;1124;-78
2022/03/29 11:12:38;;;;;;;;;;;;;;;23.19;24.54;97555.38;4955659;28;1981;-78
2022/03/29 11:15:23;;;;;;;;;;;;;;;22.97;24.84;97558.28;4936196;29;1047;-79
2022/03/29 11:17:48;;;;;;;;;;;;;;;22.97;24.76;97546.16;4936728;29;1055;-78
2022/03/29 11:20:34;;;;;;;;;;;;;;;22.95;25.05;97534.44;4936446;29;1079;-78
2022/03/29 11:23:00;;;;;;;;;;;;;;;22.68;25.12;97546.41;4987744;28;1114;-78
2022/03/29 11:25:26;;;;;;;;;;;;;;;22.53;25.50;97534.81;4994377;28;1018;-78
2022/03/29 11:27:52;;;;;;;;;;;;;;;22.67;25.41;97528.63;4994314;28;960;-79
2022/03/29 11:30:18;;;;;;;;;;;;;;;22.76;25.43;97525.06;4994154;28;1004;-79
2022/03/29 11:32:45;;;;;;;;;;;;;;;22.40;25.78;97526.41;4994409;28;1875;-78
2022/03/29 11:35:12;;;;;;;;;;;;;;;22.36;25.77;97520.84;4994110;28;1024;-78
2022/03/29 11:37:44;;;;;;;;;;;;;;;22.98;24.90;97520.13;4961916;28;992;-77
2022/03/29 11:40:13;;;;;;;;;;;;;;;22.92;24.76;97510.66;4961503;28;1340;-77
2022/03/29 11:42:44;;;;;;;;;;;;;;;22.99;24.72;97516.03;4955313;29;1189;-78
2022/03/29 11:45:09;;;;;;;;;;;;;;;23.28;24.46;97504.34;4900275;29;1005;-79
2022/03/29 11:47:35;;;;;;;;;;;;;;;22.86;24.79;97496.25;4920432;29;1091;-78
2022/03/29 11:50:00;;;;;;;;;;;;;;;23.11;24.46;97503.03;4920127;29;1582;-77
2022/03/29 11:52:31;;;;;;;;;;;;;;;23.09;24.42;97502.69;4920369;29;1969;-78
2022/03/29 11:54:57;;;;;;;;;;;;;;;22.86;24.58;97501.94;4916942;29;964;-76
2022/03/29 11:57:23;;;;;;;;;;;;;;;22.85;24.96;97493.91;4917228;29;1047;-78
2022/03/29 11:59:49;;;;;;;;;;;;;;;22.80;24.84;97486.78;4916954;29;964;-77
2022/03/29 12:02:15;;;;;;;;;;;;;;;22.59;25.21;97487.63;4916944;29;1127;-78
2022/03/29 12:04:41;;;;;;;;;;;;;;;22.62;25.10;97495.97;4916885;29;1011;-78
2022/03/29 12:07:07;;;;;;;;;;;;;;;22.61;25.14;97496.44;4917236;29;1077;-76
2022/03/29 12:09:32;;;;;;;;;;;;;;;22.75;25.03;97493.06;4916837;29;988;-78
2022/03/29 12:12:00;;;;;;;;;;;;;;;22.19;25.83;97502.47;4917467;29;1970;-78
2022/03/29 12:14:26;;;;;;;;;;;;;;;22.31;25.53;97495.16;4919790;29;1128;-78
2022/03/29 12:16:52;;;;;;;;;;;;;;;23.07;24.69;97482.50;4936604;29;922;-78
2022/03/29 12:19:18;;;;;;;;;;;;;;;22.98;24.83;97486.09;4975647;28;1656;-78
2022/03/29 12:21:54;;;;;;;;;;;;;;;23.24;24.09;97480.97;4956988;28;1584;-79
2022/03/29 12:24:20;;;;;;;;;;;;;;;23.12;24.22;97482.69;4928385;29;1589;-78
2022/03/29 12:26:48;;;;;;;;;;;;;;;23.20;24.00;97480.31;4931251;29;1586;-78
2022/03/29 12:29:16;;;;;;;;;;;;;;;22.98;24.37;97468.28;4915016;29;1637;-78
2022/03/29 12:31:41;;;;;;;;;;;;;;;22.69;24.76;97469.41;4882484;29;1982;-77
2022/03/29 12:34:07;;;;;;;;;;;;;;;22.76;24.93;97469.13;4863590;29;1219;-79
2022/03/29 12:36:32;;;;;;;;;;;;;;;22.83;24.84;97460.31;4848818;29;1195;-77
2022/03/29 12:39:02;;;;;;;;;;;;;;;22.68;25.01;97462.13;4863619;29;1604;-76
2022/03/29 12:41:46;;;;;;;;;;;;;;;22.52;25.13;97459.53;4863909;29;1549;-77
2022/03/29 12:44:12;;;;;;;;;;;;;;;22.53;25.34;97455.44;4864036;29;1057;-78
2022/03/29 12:46:39;;;;;;;;;;;;;;;22.81;24.70;97451.47;4863945;29;1028;-76
2022/03/29 12:49:04;;;;;;;;;;;;;;;22.94;24.75;97450.59;4863709;29;1096;-78
2022/03/29 12:51:39;;;;;;;;;;;;;;;22.60;25.23;97443.84;4848591;29;1899;-77
2022/03/29 12:54:13;;;;;;;;;;;;;;;22.49;25.37;97447.09;4863610;29;999;-77
2022/03/29 12:56:40;;;;;;;;;;;;;;;23.06;24.51;97441.22;4902190;29;975;-79
2022/03/29 12:59:23;;;;;;;;;;;;;;;23.14;24.26;97442.47;4904289;29;1027;-77
2022/03/29 13:01:49;;;;;;;;;;;;;;;23.09;24.38;97434.56;4939249;29;1081;-79
2022/03/29 13:04:14;;;;;;;;;;;;;;;22.95;24.47;97441.66;4947241;28;1059;-78
2022/03/29 13:06:43;;;;;;;;;;;;;;;22.89;24.54;97432.16;4999486;28;945;-79
2022/03/29 13:09:13;;;;;;;;;;;;;;;22.97;24.28;97436.28;4996835;28;1163;-78
2022/03/29 13:11:38;;;;;;;;;;;;;;;22.88;24.80;97437.03;4923121;29;1907;-78
2022/03/29 13:14:04;;;;;;;;;;;;;;;22.55;25.17;97424.59;4900744;29;1071;-78